sensor_id;sensor_type;location;lat;lon;timestamp;temperature;humidity
13174;DHT22;6652;48.802;9.190;2023-12-14T00:01:38;7.20;99.90
13174;DHT22;6652;48.802;9.190;2023-12-14T00:04:07;7.10;99.90
13174;DHT22;6652;48.802;9.190;2023-12-14T00:06:37;7.10;99.90
13174;DHT22;6652;48.802;9.190;2023-12-14T00:09:04;7.10;99.90
13174;DHT22;6652;48.802;9.190;2023-12-14T00:11:31;7.10;99.90
13174;DHT22;6652;48.802;9.190;2023-12-14T00:14:00;7.20;99.90
13174;DHT22;6652;48.802;9.190;2023-12-14T00:16:30;7.20;99.90
13174;DHT22;6652;48.802;9.190;2023-12-14T00:18:56;7.20;99.90
13174;DHT22;6652;48.802;9.190;2023-12-14T00:21:23;7.10;99.90
13174;DHT22;6652;48.802;9.190;2023-12-14T00:23:51;7.10;99.90
13174;DHT22;6652;48.802;9.190;2023-12-14T00:26:18;7.10;99.90
13174;DHT22;6652;48.802;9.190;2023-12-14T00:28:45;7.10;99.90
13174;DHT22;6652;48.802;9.190;2023-12-14T00:31:12;7.10;99.90
13174;DHT22;6652;48.802;9.190;2023-12-14T00:33:39;7.10;99.90
13174;DHT22;6652;48.802;9.190;2023-12-14T00:36:06;7.10;99.90
13174;DHT22;6652;48.802;9.190;2023-12-14T00:38:33;7.10;99.90
13174;DHT22;6652;48.802;9.190;2023-12-14T00:41:01;7.10;99.90
13174;DHT22;6652;48.802;9.190;2023-12-14T00:43:28;7.10;99.90
13174;DHT22;6652;48.802;9.190;2023-12-14T00:45:54;7.10;99.90
13174;DHT22;6652;48.802;9.190;2023-12-14T00:48:21;7.20;99.90
13174;DHT22;6652;48.802;9.190;2023-12-14T00:50:48;7.20;99.90
13174;DHT22;6652;48.802;9.190;2023-12-14T00:53:15;7.20;99.90
13174;DHT22;6652;48.802;9.190;2023-12-14T00:55:42;7.20;99.90
13174;DHT22;6652;48.802;9.190;2023-12-14T00:58:12;7.20;99.90
13174;DHT22;6652;48.802;9.190;2023-12-14T01:00:39;7.20;99.90
13174;DHT22;6652;48.802;9.190;2023-12-14T01:03:06;7.20;99.90
13174;DHT22;6652;48.802;9.190;2023-12-14T01:05:32;7.20;99.90
13174;DHT22;6652;48.802;9.190;2023-12-14T01:07:59;7.20;99.90
13174;DHT22;6652;48.802;9.190;2023-12-14T01:10:26;7.20;99.90
13174;DHT22;6652;48.802;9.190;2023-12-14T01:12:54;7.20;99.90
13174;DHT22;6652;48.802;9.190;2023-12-14T01:15:26;7.20;99.90
13174;DHT22;6652;48.802;9.190;2023-12-14T01:17:53;7.20;99.90
13174;DHT22;6652;48.802;9.190;2023-12-14T01:20:19;7.20;99.90
13174;DHT22;6652;48.802;9.190;2023-12-14T01:22:47;7.20;99.90
13174;DHT22;6652;48.802;9.190;2023-12-14T01:25:14;7.30;99.90
13174;DHT22;6652;48.802;9.190;2023-12-14T01:27:40;7.30;99.90
13174;DHT22;6652;48.802;9.190;2023-12-14T01:30:08;7.30;99.90
13174;DHT22;6652;48.802;9.190;2023-12-14T01:32:36;7.30;99.90
13174;DHT22;6652;48.802;9.190;2023-12-14T01:35:05;7.30;99.90
13174;DHT22;6652;48.802;9.190;2023-12-14T01:37:32;7.30;99.90
13174;DHT22;6652;48.802;9.190;2023-12-14T01:39:58;7.60;99.90
13174;DHT22;6652;48.802;9.190;2023-12-14T01:42:25;7.20;99.90
13174;DHT22;6652;48.802;9.190;2023-12-14T01:44:52;7.30;99.90
13174;DHT22;6652;48.802;9.190;2023-12-14T01:47:19;7.30;99.90
13174;DHT22;6652;48.802;9.190;2023-12-14T01:49:47;7.30;99.90
13174;DHT22;6652;48.802;9.190;2023-12-14T01:52:14;7.30;99.90
13174;DHT22;6652;48.802;9.190;2023-12-14T01:54:41;7.30;99.90
13174;DHT22;6652;48.802;9.190;2023-12-14T01:57:07;7.30;99.90
13174;DHT22;6652;48.802;9.190;2023-12-14T01:59:34;7.30;99.90
13174;DHT22;6652;48.802;9.190;2023-12-14T02:02:01;7.70;99.90
13174;DHT22;6652;48.802;9.190;2023-12-14T02:04:30;7.30;99.90
13174;DHT22;6652;48.802;9.190;2023-12-14T02:06:58;7.30;99.90
13174;DHT22;6652;48.802;9.190;2023-12-14T02:09:25;7.30;99.90
13174;DHT22;6652;48.802;9.190;2023-12-14T02:11:52;7.30;99.90
13174;DHT22;6652;48.802;9.190;2023-12-14T02:14:21;7.20;99.90
13174;DHT22;6652;48.802;9.190;2023-12-14T02:16:48;7.20;99.90
13174;DHT22;6652;48.802;9.190;2023-12-14T02:19:15;7.10;99.90
13174;DHT22;6652;48.802;9.190;2023-12-14T02:21:42;7.10;99.90
13174;DHT22;6652;48.802;9.190;2023-12-14T02:24:10;7.20;99.90
13174;DHT22;6652;48.802;9.190;2023-12-14T02:26:37;7.20;99.90
13174;DHT22;6652;48.802;9.190;2023-12-14T02:29:03;7.20;99.90
13174;DHT22;6652;48.802;9.190;2023-12-14T02:31:30;7.20;99.90
13174;DHT22;6652;48.802;9.190;2023-12-14T02:33:57;7.20;99.90
13174;DHT22;6652;48.802;9.190;2023-12-14T02:36:24;7.20;99.90
13174;DHT22;6652;48.802;9.190;2023-12-14T02:38:51;7.20;99.90
13174;DHT22;6652;48.802;9.190;2023-12-14T02:41:19;7.20;99.90
13174;DHT22;6652;48.802;9.190;2023-12-14T02:43:45;7.20;99.90
13174;DHT22;6652;48.802;9.190;2023-12-14T02:46:12;7.20;99.90
13174;DHT22;6652;48.802;9.190;2023-12-14T02:48:41;7.20;99.90
13174;DHT22;6652;48.802;9.190;2023-12-14T02:51:12;7.20;99.90
13174;DHT22;6652;48.802;9.190;2023-12-14T02:53:39;7.20;99.90
13174;DHT22;6652;48.802;9.190;2023-12-14T02:56:07;7.20;99.90
13174;DHT22;6652;48.802;9.190;2023-12-14T02:58:35;7.20;99.90
13174;DHT22;6652;48.802;9.190;2023-12-14T03:01:02;7.20;99.90
13174;DHT22;6652;48.802;9.190;2023-12-14T03:03:29;7.20;99.90
13174;DHT22;6652;48.802;9.190;2023-12-14T03:05:56;7.20;99.90
13174;DHT22;6652;48.802;9.190;2023-12-14T03:08:23;7.30;99.90
13174;DHT22;6652;48.802;9.190;2023-12-14T03:10:49;7.30;99.90
13174;DHT22;6652;48.802;9.190;2023-12-14T03:13:16;7.30;99.90
13174;DHT22;6652;48.802;9.190;2023-12-14T03:15:45;7.30;99.90
13174;DHT22;6652;48.802;9.190;2023-12-14T03:18:14;7.30;99.90
13174;DHT22;6652;48.802;9.190;2023-12-14T03:20:41;7.30;99.90
13174;DHT22;6652;48.802;9.190;2023-12-14T03:23:08;7.30;99.90
13174;DHT22;6652;48.802;9.190;2023-12-14T03:25:34;7.30;99.90
13174;DHT22;6652;48.802;9.190;2023-12-14T03:28:01;7.30;99.90
13174;DHT22;6652;48.802;9.190;2023-12-14T03:30:28;7.30;99.90
13174;DHT22;6652;48.802;9.190;2023-12-14T03:32:56;7.30;99.90
13174;DHT22;6652;48.802;9.190;2023-12-14T03:35:23;7.30;99.90
13174;DHT22;6652;48.802;9.190;2023-12-14T03:37:49;7.40;99.90
13174;DHT22;6652;48.802;9.190;2023-12-14T03:40:17;7.40;99.90
13174;DHT22;6652;48.802;9.190;2023-12-14T03:42:43;7.30;99.90
13174;DHT22;6652;48.802;9.190;2023-12-14T03:45:10;7.40;99.90
13174;DHT22;6652;48.802;9.190;2023-12-14T03:47:37;7.40;99.90
13174;DHT22;6652;48.802;9.190;2023-12-14T03:50:07;7.30;99.90
13174;DHT22;6652;48.802;9.190;2023-12-14T03:52:34;7.40;99.90
13174;DHT22;6652;48.802;9.190;2023-12-14T03:55:01;7.40;99.90
13174;DHT22;6652;48.802;9.190;2023-12-14T03:57:28;7.30;99.90
13174;DHT22;6652;48.802;9.190;2023-12-14T03:59:55;7.40;99.90
13174;DHT22;6652;48.802;9.190;2023-12-14T04:02:22;7.30;99.90
13174;DHT22;6652;48.802;9.190;2023-12-14T04:04:49;7.30;99.90
13174;DHT22;6652;48.802;9.190;2023-12-14T04:07:17;7.30;99.90
13174;DHT22;6652;48.802;9.190;2023-12-14T04:09:44;7.30;99.90
13174;DHT22;6652;48.802;9.190;2023-12-14T04:12:11;7.30;99.90
13174;DHT22;6652;48.802;9.190;2023-12-14T04:14:38;7.30;99.90
13174;DHT22;6652;48.802;9.190;2023-12-14T04:17:04;7.40;99.90
13174;DHT22;6652;48.802;9.190;2023-12-14T04:19:30;7.40;99.90
13174;DHT22;6652;48.802;9.190;2023-12-14T04:21:57;7.40;99.90
13174;DHT22;6652;48.802;9.190;2023-12-14T04:24:25;7.40;99.90
13174;DHT22;6652;48.802;9.190;2023-12-14T04:26:53;7.40;99.90
13174;DHT22;6652;48.802;9.190;2023-12-14T04:29:19;7.40;99.90
13174;DHT22;6652;48.802;9.190;2023-12-14T04:31:46;7.40;99.90
13174;DHT22;6652;48.802;9.190;2023-12-14T04:34:13;7.40;99.90
13174;DHT22;6652;48.802;9.190;2023-12-14T04:36:41;7.40;99.90
13174;DHT22;6652;48.802;9.190;2023-12-14T04:39:08;7.40;99.90
13174;DHT22;6652;48.802;9.190;2023-12-14T04:41:36;7.40;99.90
13174;DHT22;6652;48.802;9.190;2023-12-14T04:44:03;7.40;99.90
13174;DHT22;6652;48.802;9.190;2023-12-14T04:46:30;7.40;99.90
13174;DHT22;6652;48.802;9.190;2023-12-14T04:48:57;7.40;99.90
13174;DHT22;6652;48.802;9.190;2023-12-14T04:51:24;7.40;99.90
13174;DHT22;6652;48.802;9.190;2023-12-14T04:53:51;7.40;99.90
13174;DHT22;6652;48.802;9.190;2023-12-14T04:56:18;7.40;99.90
13174;DHT22;6652;48.802;9.190;2023-12-14T04:58:46;7.40;99.90
13174;DHT22;6652;48.802;9.190;2023-12-14T05:01:13;7.30;99.90
13174;DHT22;6652;48.802;9.190;2023-12-14T05:03:40;7.30;99.90
13174;DHT22;6652;48.802;9.190;2023-12-14T05:06:07;7.60;99.90
13174;DHT22;6652;48.802;9.190;2023-12-14T05:08:33;7.30;99.90
13174;DHT22;6652;48.802;9.190;2023-12-14T05:11:01;7.40;99.90
13174;DHT22;6652;48.802;9.190;2023-12-14T05:13:28;7.40;99.90
13174;DHT22;6652;48.802;9.190;2023-12-14T05:15:56;7.40;99.90
13174;DHT22;6652;48.802;9.190;2023-12-14T05:18:24;7.40;99.90
13174;DHT22;6652;48.802;9.190;2023-12-14T05:20:50;7.50;99.90
13174;DHT22;6652;48.802;9.190;2023-12-14T05:23:17;7.50;99.90
13174;DHT22;6652;48.802;9.190;2023-12-14T05:25:44;7.50;99.90
13174;DHT22;6652;48.802;9.190;2023-12-14T05:28:11;7.50;99.90
13174;DHT22;6652;48.802;9.190;2023-12-14T05:30:38;7.50;99.90
13174;DHT22;6652;48.802;9.190;2023-12-14T05:33:06;7.50;99.90
13174;DHT22;6652;48.802;9.190;2023-12-14T05:35:33;7.60;99.90
13174;DHT22;6652;48.802;9.190;2023-12-14T05:38:00;7.60;99.90
13174;DHT22;6652;48.802;9.190;2023-12-14T05:40:27;7.50;99.90
13174;DHT22;6652;48.802;9.190;2023-12-14T05:42:54;7.60;99.90
13174;DHT22;6652;48.802;9.190;2023-12-14T05:45:21;7.60;99.90
13174;DHT22;6652;48.802;9.190;2023-12-14T05:47:48;7.70;99.90
13174;DHT22;6652;48.802;9.190;2023-12-14T05:50:18;8.00;99.90
13174;DHT22;6652;48.802;9.190;2023-12-14T05:52:44;8.40;99.90
13174;DHT22;6652;48.802;9.190;2023-12-14T05:55:11;8.70;99.90
13174;DHT22;6652;48.802;9.190;2023-12-14T05:57:38;8.80;99.90
13174;DHT22;6652;48.802;9.190;2023-12-14T06:00:06;8.60;99.90
13174;DHT22;6652;48.802;9.190;2023-12-14T06:02:33;8.60;99.90
13174;DHT22;6652;48.802;9.190;2023-12-14T06:05:02;8.80;99.90
13174;DHT22;6652;48.802;9.190;2023-12-14T06:07:30;8.60;99.90
13174;DHT22;6652;48.802;9.190;2023-12-14T06:09:57;8.40;99.90
13174;DHT22;6652;48.802;9.190;2023-12-14T06:12:24;8.30;99.90
13174;DHT22;6652;48.802;9.190;2023-12-14T06:14:51;8.10;99.90
13174;DHT22;6652;48.802;9.190;2023-12-14T06:17:18;8.10;99.90
13174;DHT22;6652;48.802;9.190;2023-12-14T06:19:45;8.00;99.90
13174;DHT22;6652;48.802;9.190;2023-12-14T06:22:12;7.90;99.90
13174;DHT22;6652;48.802;9.190;2023-12-14T06:24:40;7.90;99.90
13174;DHT22;6652;48.802;9.190;2023-12-14T06:27:07;7.80;99.90
13174;DHT22;6652;48.802;9.190;2023-12-14T06:29:34;7.90;99.90
13174;DHT22;6652;48.802;9.190;2023-12-14T06:32:01;7.80;99.90
13174;DHT22;6652;48.802;9.190;2023-12-14T06:34:27;7.80;99.90
13174;DHT22;6652;48.802;9.190;2023-12-14T06:36:54;7.80;99.90
13174;DHT22;6652;48.802;9.190;2023-12-14T06:39:23;7.70;99.90
13174;DHT22;6652;48.802;9.190;2023-12-14T06:41:53;7.70;99.90
13174;DHT22;6652;48.802;9.190;2023-12-14T06:44:20;7.70;99.90
13174;DHT22;6652;48.802;9.190;2023-12-14T06:46:46;7.80;99.90
13174;DHT22;6652;48.802;9.190;2023-12-14T06:49:13;7.60;99.90
13174;DHT22;6652;48.802;9.190;2023-12-14T06:51:40;7.60;99.90
13174;DHT22;6652;48.802;9.190;2023-12-14T06:54:07;7.70;99.90
13174;DHT22;6652;48.802;9.190;2023-12-14T06:56:36;7.70;99.90
13174;DHT22;6652;48.802;9.190;2023-12-14T06:59:04;7.70;99.90
13174;DHT22;6652;48.802;9.190;2023-12-14T07:01:31;7.70;99.90
13174;DHT22;6652;48.802;9.190;2023-12-14T07:03:57;7.70;99.90
13174;DHT22;6652;48.802;9.190;2023-12-14T07:06:24;7.70;99.90
13174;DHT22;6652;48.802;9.190;2023-12-14T07:08:51;7.80;99.90
13174;DHT22;6652;48.802;9.190;2023-12-14T07:11:18;7.80;99.90
13174;DHT22;6652;48.802;9.190;2023-12-14T07:13:45;7.80;99.90
13174;DHT22;6652;48.802;9.190;2023-12-14T07:16:13;7.80;99.90
13174;DHT22;6652;48.802;9.190;2023-12-14T07:18:43;7.80;99.90
13174;DHT22;6652;48.802;9.190;2023-12-14T07:21:10;7.80;99.90
13174;DHT22;6652;48.802;9.190;2023-12-14T07:23:37;7.80;99.90
13174;DHT22;6652;48.802;9.190;2023-12-14T07:26:04;7.80;99.90
13174;DHT22;6652;48.802;9.190;2023-12-14T07:28:31;7.80;99.90
13174;DHT22;6652;48.802;9.190;2023-12-14T07:30:59;7.80;99.90
13174;DHT22;6652;48.802;9.190;2023-12-14T07:33:27;7.80;99.90
13174;DHT22;6652;48.802;9.190;2023-12-14T07:35:53;7.80;99.90
13174;DHT22;6652;48.802;9.190;2023-12-14T07:38:20;7.80;99.90
13174;DHT22;6652;48.802;9.190;2023-12-14T07:40:47;7.80;99.90
13174;DHT22;6652;48.802;9.190;2023-12-14T07:43:15;7.80;99.90
13174;DHT22;6652;48.802;9.190;2023-12-14T07:45:42;7.90;99.90
13174;DHT22;6652;48.802;9.190;2023-12-14T07:48:09;7.80;99.90
13174;DHT22;6652;48.802;9.190;2023-12-14T07:50:37;7.80;99.90
13174;DHT22;6652;48.802;9.190;2023-12-14T07:53:04;7.80;99.90
13174;DHT22;6652;48.802;9.190;2023-12-14T07:55:31;7.80;99.90
13174;DHT22;6652;48.802;9.190;2023-12-14T07:57:57;7.90;99.90
13174;DHT22;6652;48.802;9.190;2023-12-14T08:00:24;7.90;99.90
13174;DHT22;6652;48.802;9.190;2023-12-14T08:02:51;8.00;99.90
13174;DHT22;6652;48.802;9.190;2023-12-14T08:05:18;8.00;99.90
13174;DHT22;6652;48.802;9.190;2023-12-14T08:07:46;8.10;99.90
13174;DHT22;6652;48.802;9.190;2023-12-14T08:10:13;8.20;99.90
13174;DHT22;6652;48.802;9.190;2023-12-14T08:12:40;8.20;99.90
13174;DHT22;6652;48.802;9.190;2023-12-14T08:15:08;8.30;99.90
13174;DHT22;6652;48.802;9.190;2023-12-14T08:17:35;8.30;99.90
13174;DHT22;6652;48.802;9.190;2023-12-14T08:20:02;8.30;99.90
13174;DHT22;6652;48.802;9.190;2023-12-14T08:22:34;8.30;99.90
13174;DHT22;6652;48.802;9.190;2023-12-14T08:25:02;8.40;99.90
13174;DHT22;6652;48.802;9.190;2023-12-14T08:27:29;8.40;99.90
13174;DHT22;6652;48.802;9.190;2023-12-14T08:29:56;8.40;99.90
13174;DHT22;6652;48.802;9.190;2023-12-14T08:32:23;8.50;99.90
13174;DHT22;6652;48.802;9.190;2023-12-14T08:34:50;8.50;99.90
13174;DHT22;6652;48.802;9.190;2023-12-14T08:37:18;8.50;99.90
13174;DHT22;6652;48.802;9.190;2023-12-14T08:39:45;8.40;99.90
13174;DHT22;6652;48.802;9.190;2023-12-14T08:42:13;8.40;99.90
13174;DHT22;6652;48.802;9.190;2023-12-14T08:44:40;8.40;99.90
13174;DHT22;6652;48.802;9.190;2023-12-14T08:47:07;8.50;99.90
13174;DHT22;6652;48.802;9.190;2023-12-14T08:49:34;8.50;99.90
13174;DHT22;6652;48.802;9.190;2023-12-14T08:52:01;8.60;99.90
13174;DHT22;6652;48.802;9.190;2023-12-14T08:54:29;8.70;99.90
13174;DHT22;6652;48.802;9.190;2023-12-14T08:56:56;8.70;99.90
13174;DHT22;6652;48.802;9.190;2023-12-14T08:59:25;8.70;99.90
13174;DHT22;6652;48.802;9.190;2023-12-14T09:01:52;8.70;99.90
13174;DHT22;6652;48.802;9.190;2023-12-14T09:04:19;8.70;99.90
13174;DHT22;6652;48.802;9.190;2023-12-14T09:06:46;8.80;99.90
13174;DHT22;6652;48.802;9.190;2023-12-14T09:09:13;8.90;99.90
13174;DHT22;6652;48.802;9.190;2023-12-14T09:11:40;8.90;99.90
13174;DHT22;6652;48.802;9.190;2023-12-14T09:14:06;9.00;99.90
13174;DHT22;6652;48.802;9.190;2023-12-14T09:16:35;9.20;99.90
13174;DHT22;6652;48.802;9.190;2023-12-14T09:19:01;9.60;99.90
13174;DHT22;6652;48.802;9.190;2023-12-14T09:21:28;10.20;99.90
13174;DHT22;6652;48.802;9.190;2023-12-14T09:23:55;10.60;99.90
13174;DHT22;6652;48.802;9.190;2023-12-14T09:26:22;10.40;99.90
13174;DHT22;6652;48.802;9.190;2023-12-14T09:28:49;10.30;99.90
13174;DHT22;6652;48.802;9.190;2023-12-14T09:31:16;10.00;99.90
13174;DHT22;6652;48.802;9.190;2023-12-14T09:33:44;9.80;99.90
13174;DHT22;6652;48.802;9.190;2023-12-14T09:36:11;9.70;99.90
13174;DHT22;6652;48.802;9.190;2023-12-14T09:38:38;9.70;99.90
13174;DHT22;6652;48.802;9.190;2023-12-14T09:41:05;9.70;99.90
13174;DHT22;6652;48.802;9.190;2023-12-14T09:43:33;9.70;99.90
13174;DHT22;6652;48.802;9.190;2023-12-14T09:46:00;9.70;99.90
13174;DHT22;6652;48.802;9.190;2023-12-14T09:48:28;9.60;99.90
13174;DHT22;6652;48.802;9.190;2023-12-14T09:50:57;9.70;99.90
13174;DHT22;6652;48.802;9.190;2023-12-14T09:53:24;9.80;99.90
13174;DHT22;6652;48.802;9.190;2023-12-14T09:55:50;10.00;99.90
13174;DHT22;6652;48.802;9.190;2023-12-14T09:58:16;10.10;99.90
13174;DHT22;6652;48.802;9.190;2023-12-14T10:00:43;10.20;99.90
13174;DHT22;6652;48.802;9.190;2023-12-14T10:03:24;10.50;99.90
13174;DHT22;6652;48.802;9.190;2023-12-14T10:05:53;10.70;99.90
13174;DHT22;6652;48.802;9.190;2023-12-14T10:08:21;10.90;99.90
13174;DHT22;6652;48.802;9.190;2023-12-14T10:10:50;11.20;99.90
13174;DHT22;6652;48.802;9.190;2023-12-14T10:13:18;12.20;99.90
13174;DHT22;6652;48.802;9.190;2023-12-14T10:15:46;13.10;99.90
13174;DHT22;6652;48.802;9.190;2023-12-14T10:18:21;13.20;99.90
13174;DHT22;6652;48.802;9.190;2023-12-14T10:20:48;13.40;99.90
13174;DHT22;6652;48.802;9.190;2023-12-14T10:23:15;13.70;99.90
13174;DHT22;6652;48.802;9.190;2023-12-14T10:25:45;13.40;99.90
13174;DHT22;6652;48.802;9.190;2023-12-14T10:28:12;12.90;99.90
13174;DHT22;6652;48.802;9.190;2023-12-14T10:30:40;12.70;99.90
13174;DHT22;6652;48.802;9.190;2023-12-14T10:33:07;12.50;99.90
13174;DHT22;6652;48.802;9.190;2023-12-14T10:35:34;12.90;99.90
13174;DHT22;6652;48.802;9.190;2023-12-14T10:38:03;12.90;99.90
13174;DHT22;6652;48.802;9.190;2023-12-14T10:40:31;12.70;99.90
13174;DHT22;6652;48.802;9.190;2023-12-14T10:43:00;12.30;99.90
13174;DHT22;6652;48.802;9.190;2023-12-14T10:45:29;12.00;99.90
13174;DHT22;6652;48.802;9.190;2023-12-14T10:47:58;11.60;99.90
13174;DHT22;6652;48.802;9.190;2023-12-14T10:50:28;11.10;99.90
13174;DHT22;6652;48.802;9.190;2023-12-14T10:52:56;10.80;99.90
13174;DHT22;6652;48.802;9.190;2023-12-14T10:55:28;10.60;99.90
13174;DHT22;6652;48.802;9.190;2023-12-14T10:57:57;10.50;99.90
13174;DHT22;6652;48.802;9.190;2023-12-14T11:00:25;10.40;99.90
13174;DHT22;6652;48.802;9.190;2023-12-14T11:02:52;10.50;99.90
13174;DHT22;6652;48.802;9.190;2023-12-14T11:05:19;10.50;99.90
13174;DHT22;6652;48.802;9.190;2023-12-14T11:07:55;10.60;99.90
13174;DHT22;6652;48.802;9.190;2023-12-14T11:10:26;10.70;99.90
13174;DHT22;6652;48.802;9.190;2023-12-14T11:13:00;10.70;99.90
13174;DHT22;6652;48.802;9.190;2023-12-14T11:15:30;10.70;99.90
13174;DHT22;6652;48.802;9.190;2023-12-14T11:18:21;10.50;99.90
13174;DHT22;6652;48.802;9.190;2023-12-14T11:20:49;10.40;99.90
13174;DHT22;6652;48.802;9.190;2023-12-14T11:23:17;10.40;99.90
13174;DHT22;6652;48.802;9.190;2023-12-14T11:25:48;10.40;99.90
13174;DHT22;6652;48.802;9.190;2023-12-14T11:28:15;10.40;99.90
13174;DHT22;6652;48.802;9.190;2023-12-14T11:30:45;10.40;99.90
13174;DHT22;6652;48.802;9.190;2023-12-14T11:33:13;10.40;99.90
13174;DHT22;6652;48.802;9.190;2023-12-14T11:35:41;10.50;99.90
13174;DHT22;6652;48.802;9.190;2023-12-14T11:38:08;11.30;99.90
13174;DHT22;6652;48.802;9.190;2023-12-14T11:40:38;10.60;99.90
13174;DHT22;6652;48.802;9.190;2023-12-14T11:43:06;10.80;99.90
13174;DHT22;6652;48.802;9.190;2023-12-14T11:45:34;10.90;99.90
13174;DHT22;6652;48.802;9.190;2023-12-14T11:48:02;11.00;99.90
13174;DHT22;6652;48.802;9.190;2023-12-14T11:50:31;10.90;99.90
13174;DHT22;6652;48.802;9.190;2023-12-14T11:52:59;10.70;99.90
13174;DHT22;6652;48.802;9.190;2023-12-14T11:55:26;10.90;99.90
13174;DHT22;6652;48.802;9.190;2023-12-14T11:57:53;10.60;99.90
13174;DHT22;6652;48.802;9.190;2023-12-14T12:00:23;10.60;99.90
13174;DHT22;6652;48.802;9.190;2023-12-14T12:02:50;10.60;99.90
13174;DHT22;6652;48.802;9.190;2023-12-14T12:05:19;10.60;99.90
13174;DHT22;6652;48.802;9.190;2023-12-14T12:07:46;10.60;99.90
13174;DHT22;6652;48.802;9.190;2023-12-14T12:10:12;10.70;99.90
13174;DHT22;6652;48.802;9.190;2023-12-14T12:12:39;10.60;99.90
13174;DHT22;6652;48.802;9.190;2023-12-14T12:15:07;10.60;99.90
13174;DHT22;6652;48.802;9.190;2023-12-14T12:17:34;10.60;99.90
13174;DHT22;6652;48.802;9.190;2023-12-14T12:20:04;10.80;99.90
13174;DHT22;6652;48.802;9.190;2023-12-14T12:22:33;10.50;99.90
13174;DHT22;6652;48.802;9.190;2023-12-14T12:24:59;10.50;99.90
13174;DHT22;6652;48.802;9.190;2023-12-14T12:27:27;10.30;99.90
13174;DHT22;6652;48.802;9.190;2023-12-14T12:29:54;10.30;99.90
13174;DHT22;6652;48.802;9.190;2023-12-14T12:32:21;10.20;99.90
13174;DHT22;6652;48.802;9.190;2023-12-14T12:34:48;10.20;99.90
13174;DHT22;6652;48.802;9.190;2023-12-14T12:37:15;10.20;99.90
13174;DHT22;6652;48.802;9.190;2023-12-14T12:39:43;10.20;99.90
13174;DHT22;6652;48.802;9.190;2023-12-14T12:42:10;10.20;99.90
13174;DHT22;6652;48.802;9.190;2023-12-14T12:44:37;10.20;99.90
13174;DHT22;6652;48.802;9.190;2023-12-14T12:47:04;10.20;99.90
13174;DHT22;6652;48.802;9.190;2023-12-14T12:49:31;10.20;99.90
13174;DHT22;6652;48.802;9.190;2023-12-14T12:51:58;10.20;99.90
13174;DHT22;6652;48.802;9.190;2023-12-14T12:54:24;10.20;99.90
13174;DHT22;6652;48.802;9.190;2023-12-14T12:56:53;10.30;99.90
13174;DHT22;6652;48.802;9.190;2023-12-14T12:59:20;10.40;99.90
13174;DHT22;6652;48.802;9.190;2023-12-14T13:01:46;10.40;99.90
13174;DHT22;6652;48.802;9.190;2023-12-14T13:04:20;10.30;99.90
13174;DHT22;6652;48.802;9.190;2023-12-14T13:06:56;10.30;99.90
13174;DHT22;6652;48.802;9.190;2023-12-14T13:09:23;10.20;99.90
13174;DHT22;6652;48.802;9.190;2023-12-14T13:11:50;10.20;99.90
13174;DHT22;6652;48.802;9.190;2023-12-14T13:14:19;10.00;99.90
13174;DHT22;6652;48.802;9.190;2023-12-14T13:16:46;9.80;99.90
13174;DHT22;6652;48.802;9.190;2023-12-14T13:19:13;9.30;99.90
13174;DHT22;6652;48.802;9.190;2023-12-14T13:21:40;9.80;99.90
13174;DHT22;6652;48.802;9.190;2023-12-14T13:24:07;10.30;99.90
13174;DHT22;6652;48.802;9.190;2023-12-14T13:26:35;9.40;99.90
13174;DHT22;6652;48.802;9.190;2023-12-14T13:29:02;9.40;99.90
13174;DHT22;6652;48.802;9.190;2023-12-14T13:31:30;9.40;99.90
13174;DHT22;6652;48.802;9.190;2023-12-14T13:33:57;8.50;99.90
13174;DHT22;6652;48.802;9.190;2023-12-14T13:36:24;9.30;99.90
13174;DHT22;6652;48.802;9.190;2023-12-14T13:38:50;9.40;99.90
13174;DHT22;6652;48.802;9.190;2023-12-14T13:41:17;10.40;99.90
13174;DHT22;6652;48.802;9.190;2023-12-14T13:43:48;9.10;99.90
13174;DHT22;6652;48.802;9.190;2023-12-14T13:46:22;9.10;99.90
13174;DHT22;6652;48.802;9.190;2023-12-14T13:48:52;9.20;99.90
13174;DHT22;6652;48.802;9.190;2023-12-14T13:51:25;9.10;99.90
13174;DHT22;6652;48.802;9.190;2023-12-14T13:53:52;8.40;99.90
13174;DHT22;6652;48.802;9.190;2023-12-14T13:56:19;9.00;99.90
13174;DHT22;6652;48.802;9.190;2023-12-14T13:58:46;9.00;99.90
13174;DHT22;6652;48.802;9.190;2023-12-14T14:01:13;10.10;99.90
13174;DHT22;6652;48.802;9.190;2023-12-14T14:03:41;9.80;99.90
13174;DHT22;6652;48.802;9.190;2023-12-14T14:06:09;8.90;99.90
13174;DHT22;6652;48.802;9.190;2023-12-14T14:08:37;8.80;99.90
13174;DHT22;6652;48.802;9.190;2023-12-14T14:11:04;8.70;99.90
13174;DHT22;6652;48.802;9.190;2023-12-14T14:13:31;8.70;99.90
13174;DHT22;6652;48.802;9.190;2023-12-14T14:15:58;8.70;99.90
13174;DHT22;6652;48.802;9.190;2023-12-14T14:18:25;8.70;99.90
13174;DHT22;6652;48.802;9.190;2023-12-14T14:20:52;9.20;99.90
13174;DHT22;6652;48.802;9.190;2023-12-14T14:23:20;8.70;99.90
13174;DHT22;6652;48.802;9.190;2023-12-14T14:25:47;8.60;99.90
13174;DHT22;6652;48.802;9.190;2023-12-14T14:28:19;8.60;99.90
13174;DHT22;6652;48.802;9.190;2023-12-14T14:30:46;9.00;99.90
13174;DHT22;6652;48.802;9.190;2023-12-14T14:33:14;8.60;99.90
13174;DHT22;6652;48.802;9.190;2023-12-14T14:35:43;8.60;99.90
13174;DHT22;6652;48.802;9.190;2023-12-14T14:38:10;8.60;99.90
13174;DHT22;6652;48.802;9.190;2023-12-14T14:40:38;8.50;99.90
13174;DHT22;6652;48.802;9.190;2023-12-14T14:43:07;8.50;99.90
13174;DHT22;6652;48.802;9.190;2023-12-14T14:45:35;9.50;99.90
13174;DHT22;6652;48.802;9.190;2023-12-14T14:48:03;8.50;99.90
13174;DHT22;6652;48.802;9.190;2023-12-14T14:50:34;8.50;99.90
13174;DHT22;6652;48.802;9.190;2023-12-14T14:53:01;8.40;99.90
13174;DHT22;6652;48.802;9.190;2023-12-14T14:55:29;8.50;99.90
13174;DHT22;6652;48.802;9.190;2023-12-14T14:57:57;8.50;99.90
13174;DHT22;6652;48.802;9.190;2023-12-14T15:00:24;9.40;99.90
13174;DHT22;6652;48.802;9.190;2023-12-14T15:02:51;8.50;99.90
13174;DHT22;6652;48.802;9.190;2023-12-14T15:05:19;8.50;99.90
13174;DHT22;6652;48.802;9.190;2023-12-14T15:07:47;8.60;99.90
13174;DHT22;6652;48.802;9.190;2023-12-14T15:10:14;8.60;99.90
13174;DHT22;6652;48.802;9.190;2023-12-14T15:12:41;8.60;99.90
13174;DHT22;6652;48.802;9.190;2023-12-14T15:15:09;8.60;99.90
13174;DHT22;6652;48.802;9.190;2023-12-14T15:17:37;9.00;99.90
13174;DHT22;6652;48.802;9.190;2023-12-14T15:20:05;8.70;99.90
13174;DHT22;6652;48.802;9.190;2023-12-14T15:22:32;8.50;99.90
13174;DHT22;6652;48.802;9.190;2023-12-14T15:25:02;7.70;99.90
13174;DHT22;6652;48.802;9.190;2023-12-14T15:27:31;8.50;99.90
13174;DHT22;6652;48.802;9.190;2023-12-14T15:29:58;8.50;99.90
13174;DHT22;6652;48.802;9.190;2023-12-14T15:32:26;8.50;99.90
13174;DHT22;6652;48.802;9.190;2023-12-14T15:34:53;9.10;99.90
13174;DHT22;6652;48.802;9.190;2023-12-14T15:37:20;8.40;99.90
13174;DHT22;6652;48.802;9.190;2023-12-14T15:39:47;8.50;99.90
13174;DHT22;6652;48.802;9.190;2023-12-14T15:42:15;8.50;99.90
13174;DHT22;6652;48.802;9.190;2023-12-14T15:44:42;8.40;99.90
13174;DHT22;6652;48.802;9.190;2023-12-14T15:47:10;8.40;99.90
13174;DHT22;6652;48.802;9.190;2023-12-14T15:49:38;8.40;99.90
13174;DHT22;6652;48.802;9.190;2023-12-14T15:52:05;8.40;99.90
13174;DHT22;6652;48.802;9.190;2023-12-14T15:54:32;8.40;99.90
13174;DHT22;6652;48.802;9.190;2023-12-14T15:56:59;8.70;99.90
13174;DHT22;6652;48.802;9.190;2023-12-14T15:59:26;9.40;99.90